createdAt,value
2018-12-13T00:01:23.182Z,75.34
2018-12-13T00:03:51.526Z,75.50
2018-12-13T00:06:19.742Z,75.58
2018-12-13T00:08:47.985Z,75.33
2018-12-13T00:11:16.440Z,75.55
2018-12-13T00:13:44.800Z,75.47
2018-12-13T00:16:13.055Z,75.75
2018-12-13T00:18:41.363Z,75.95
2018-12-13T00:21:09.609Z,75.74
2018-12-13T00:23:37.855Z,75.78
2018-12-13T00:26:06.121Z,75.19
2018-12-13T00:28:34.371Z,75.55
2018-12-13T00:31:02.594Z,75.56
2018-12-13T00:33:30.928Z,75.27
2018-12-13T00:35:59.160Z,75.24
2018-12-13T00:38:27.471Z,75.44
2018-12-13T00:40:55.713Z,74.77
2018-12-13T00:43:23.982Z,74.90
2018-12-13T00:45:52.260Z,75.17
2018-12-13T00:48:20.475Z,74.67
2018-12-13T00:50:48.715Z,74.92
2018-12-13T00:53:17.005Z,74.39
2018-12-13T00:55:45.318Z,74.63
2018-12-13T00:58:13.653Z,74.54
2018-12-13T01:00:41.906Z,75.00
2018-12-13T01:03:10.136Z,74.82
2018-12-13T01:05:38.371Z,75.29
2018-12-13T01:08:06.737Z,74.85
2018-12-13T01:10:34.973Z,75.30
2018-12-13T01:13:03.233Z,75.00
2018-12-13T01:15:34.401Z,75.15
2018-12-13T01:18:02.947Z,74.85
2018-12-13T01:20:31.312Z,75.48
2018-12-13T01:22:59.571Z,74.92
2018-12-13T01:25:27.794Z,74.79
2018-12-13T01:27:56.037Z,75.00
2018-12-13T01:30:30.904Z,74.59
2018-12-13T01:32:59.151Z,74.94
2018-12-13T01:35:27.470Z,75.27
2018-12-13T01:37:55.729Z,74.51
2018-12-13T01:40:23.956Z,74.60
2018-12-13T01:42:52.189Z,74.61
2018-12-13T01:45:20.528Z,74.84
2018-12-13T01:47:48.854Z,74.98
2018-12-13T01:50:17.087Z,74.14
2018-12-13T01:52:45.345Z,73.84
2018-12-13T01:55:13.573Z,73.54
2018-12-13T01:57:41.807Z,73.99
2018-12-13T02:00:10.072Z,73.89
2018-12-13T02:02:38.316Z,73.75
2018-12-13T02:05:06.707Z,73.88
2018-12-13T02:07:34.998Z,74.46
2018-12-13T02:10:03.354Z,73.19
2018-12-13T02:12:31.614Z,73.35
2018-12-13T02:15:05.977Z,73.40
2018-12-13T02:17:34.321Z,73.42
2018-12-13T02:20:02.621Z,73.77
2018-12-13T02:22:30.951Z,74.22
2018-12-13T02:24:59.288Z,74.01
2018-12-13T02:27:27.502Z,74.06
2018-12-13T02:29:55.740Z,73.58
2018-12-13T02:32:24.193Z,73.11
2018-12-13T02:34:52.442Z,73.63
2018-12-13T02:37:20.701Z,73.36
2018-12-13T02:39:48.968Z,73.65
2018-12-13T02:42:20.870Z,73.31
2018-12-13T02:44:49.096Z,72.89
2018-12-13T02:47:17.449Z,73.14
2018-12-13T02:49:45.680Z,73.49
2018-12-13T02:52:13.886Z,72.92
2018-12-13T02:54:42.119Z,72.29
2018-12-13T02:57:10.394Z,72.29
2018-12-13T02:59:38.905Z,72.67
2018-12-13T03:02:07.189Z,72.69
2018-12-13T03:04:35.534Z,72.74
2018-12-13T03:07:04.023Z,72.88
2018-12-13T03:09:32.224Z,72.80
2018-12-13T03:12:00.470Z,72.56
2018-12-13T03:14:29.059Z,72.28
2018-12-13T03:16:57.347Z,72.63
2018-12-13T03:19:25.561Z,72.52
2018-12-13T03:21:53.764Z,72.39
2018-12-13T03:24:22.087Z,72.76
2018-12-13T03:26:50.337Z,73.01
2018-12-13T03:29:18.587Z,72.56
2018-12-13T03:31:46.880Z,72.50
2018-12-13T03:34:15.152Z,72.32
2018-12-13T03:36:43.407Z,72.25
2018-12-13T03:39:11.841Z,71.42
2018-12-13T03:41:40.067Z,72.01
2018-12-13T03:44:08.271Z,71.94
2018-12-13T03:46:36.501Z,71.63
2018-12-13T03:49:04.721Z,71.88
2018-12-13T03:51:33.090Z,71.30
2018-12-13T03:54:01.380Z,71.31
2018-12-13T03:56:29.746Z,71.17
2018-12-13T03:58:58.059Z,71.06
2018-12-13T04:01:26.272Z,71.64
2018-12-13T04:03:54.485Z,71.13
2018-12-13T04:06:22.694Z,71.90
2018-12-13T04:08:51.021Z,71.70
2018-12-13T04:11:19.266Z,71.94
2018-12-13T04:13:47.492Z,71.31
2018-12-13T04:16:15.748Z,71.73
2018-12-13T04:18:43.958Z,71.88
2018-12-13T04:21:12.142Z,71.95
2018-12-13T04:23:40.419Z,71.99
2018-12-13T04:26:08.686Z,71.82
2018-12-13T04:28:36.961Z,71.87
2018-12-13T04:31:05.182Z,71.51
2018-12-13T04:33:33.537Z,71.80
2018-12-13T04:36:01.800Z,71.68
2018-12-13T04:38:30.049Z,71.34
2018-12-13T04:40:58.252Z,72.03
2018-12-13T04:43:26.497Z,71.51
2018-12-13T04:45:54.789Z,71.02
2018-12-13T04:48:23.076Z,71.17
2018-12-13T04:50:51.325Z,72.01
2018-12-13T04:53:19.576Z,71.08
2018-12-13T04:55:47.913Z,71.52
2018-12-13T04:58:16.259Z,71.34
2018-12-13T05:00:44.475Z,71.29
2018-12-13T05:03:12.682Z,71.68
2018-12-13T05:05:40.990Z,71.86
2018-12-13T05:08:09.268Z,71.94
2018-12-13T05:10:49.026Z,71.75
2018-12-13T05:13:17.424Z,72.30
2018-12-13T05:15:45.803Z,71.66
2018-12-13T05:18:14.255Z,71.14
2018-12-13T05:20:42.539Z,70.78
2018-12-13T05:23:10.753Z,71.33
2018-12-13T05:25:39.133Z,71.58
2018-12-13T05:28:07.525Z,71.76
2018-12-13T05:30:35.769Z,71.45
2018-12-13T05:33:04.083Z,71.95
2018-12-13T05:35:32.373Z,72.01
2018-12-13T05:38:00.667Z,72.22
2018-12-13T05:40:28.884Z,72.60
2018-12-13T05:42:57.154Z,72.45
2018-12-13T05:45:25.379Z,71.86
2018-12-13T05:47:53.607Z,72.31
2018-12-13T05:50:21.891Z,71.91
2018-12-13T05:52:50.096Z,72.00
2018-12-13T05:55:18.302Z,72.54
2018-12-13T05:57:46.698Z,72.45
2018-12-13T06:00:15.065Z,72.23
2018-12-13T06:02:43.414Z,71.94
2018-12-13T06:05:11.617Z,71.57
2018-12-13T06:07:39.873Z,72.13
2018-12-13T06:10:08.331Z,72.65
2018-12-13T06:12:36.559Z,72.86
2018-12-13T06:15:05.944Z,72.59
2018-12-13T06:17:34.237Z,72.85
2018-12-13T06:20:02.417Z,72.85
2018-12-13T06:22:30.757Z,73.00
2018-12-13T06:24:59.048Z,72.53
2018-12-13T06:27:27.286Z,72.73
2018-12-13T06:29:58.891Z,73.47
2018-12-13T06:32:25.815Z,73.40
2018-12-13T06:34:54.106Z,73.78
2018-12-13T06:37:22.333Z,74.92
2018-12-13T06:39:50.605Z,75.12
2018-12-13T06:42:18.845Z,74.89
2018-12-13T06:44:47.142Z,75.46
2018-12-13T06:47:15.514Z,76.02
2018-12-13T06:49:43.730Z,76.03
2018-12-13T06:52:11.979Z,75.96
2018-12-13T06:57:33.622Z,75.50
2018-12-13T07:02:55.068Z,75.96
2018-12-13T07:05:23.360Z,76.57
2018-12-13T07:07:51.640Z,76.08
2018-12-13T07:10:19.856Z,76.25
2018-12-13T07:12:48.052Z,76.28
2018-12-13T07:15:16.294Z,76.39
2018-12-13T07:17:44.513Z,75.81
2018-12-13T07:20:12.781Z,76.25
2018-12-13T07:22:40.977Z,76.15
2018-12-13T07:25:09.341Z,75.62
2018-12-13T07:27:37.677Z,76.70
2018-12-13T07:30:07.490Z,76.34
2018-12-13T07:32:35.734Z,75.73
2018-12-13T07:35:04.288Z,74.88
2018-12-13T07:37:32.581Z,74.84
2018-12-13T07:40:00.833Z,74.87
2018-12-13T07:42:29.060Z,74.70
2018-12-13T07:44:57.297Z,75.45
2018-12-13T07:47:25.653Z,74.81
2018-12-13T07:49:53.909Z,75.64
2018-12-13T07:52:22.147Z,75.60
2018-12-13T07:54:50.365Z,74.82
2018-12-13T07:57:18.764Z,75.00
2018-12-13T07:59:47.002Z,75.65
2018-12-13T08:02:15.382Z,75.81
2018-12-13T08:04:43.628Z,75.50
2018-12-13T08:07:12.011Z,75.44
2018-12-13T08:09:40.393Z,75.19
2018-12-13T08:12:08.634Z,75.38
2018-12-13T08:14:37.873Z,74.97
2018-12-13T08:17:06.101Z,75.28
2018-12-13T08:19:34.331Z,74.74
2018-12-13T08:22:02.627Z,74.67
2018-12-13T08:24:30.837Z,75.00
2018-12-13T08:26:59.170Z,75.03
2018-12-13T08:29:27.415Z,74.76
2018-12-13T08:31:55.677Z,74.38
2018-12-13T08:34:23.892Z,74.39
2018-12-13T08:36:52.223Z,74.99
2018-12-13T08:39:20.478Z,74.58
2018-12-13T08:41:48.853Z,75.15
2018-12-13T08:44:17.210Z,75.15
2018-12-13T08:46:45.439Z,74.53
2018-12-13T08:49:13.783Z,75.24
2018-12-13T08:51:42.169Z,74.85
2018-12-13T08:54:10.422Z,75.23
2018-12-13T08:56:38.656Z,74.56
2018-12-13T08:59:06.935Z,74.70
2018-12-13T09:01:35.198Z,74.15
2018-12-13T09:04:03.429Z,74.60
2018-12-13T09:06:35.827Z,73.78
2018-12-13T09:09:06.536Z,73.57
2018-12-13T09:11:34.801Z,73.41
2018-12-13T09:14:03.390Z,73.15
2018-12-13T09:16:31.876Z,72.90
2018-12-13T09:19:00.189Z,73.02
2018-12-13T09:21:28.448Z,73.00
2018-12-13T09:23:56.814Z,72.67
2018-12-13T09:26:25.121Z,72.60
2018-12-13T09:28:53.376Z,72.74
2018-12-13T09:31:21.740Z,72.67
2018-12-13T09:33:50.170Z,72.95
2018-12-13T09:36:18.502Z,72.36
2018-12-13T09:38:46.805Z,71.77
2018-12-13T09:41:15.204Z,71.81
2018-12-13T09:43:43.574Z,71.46
2018-12-13T09:46:11.866Z,71.35
2018-12-13T09:48:40.162Z,71.31
2018-12-13T09:51:08.468Z,71.97
2018-12-13T09:53:36.794Z,71.53
2018-12-13T09:56:05.161Z,71.24
2018-12-13T09:58:33.430Z,71.40
2018-12-13T10:01:01.800Z,71.73
2018-12-13T10:03:30.134Z,71.92
2018-12-13T10:05:58.455Z,71.38
2018-12-13T10:08:26.769Z,70.86
2018-12-13T10:10:55.100Z,70.84
2018-12-13T10:13:23.290Z,70.67
2018-12-13T10:15:58.265Z,70.67
2018-12-13T10:18:26.542Z,70.46
2018-12-13T10:20:54.784Z,70.48
2018-12-13T10:23:23.097Z,70.76
2018-12-13T10:28:43.853Z,69.28
2018-12-13T10:34:05.299Z,68.53
2018-12-13T10:36:33.555Z,68.38
2018-12-13T10:39:01.906Z,68.09
2018-12-13T10:41:30.189Z,67.66
2018-12-13T10:43:58.622Z,66.60
2018-12-13T10:46:26.996Z,67.19
2018-12-13T10:48:55.272Z,66.70
2018-12-13T10:51:23.556Z,66.41
2018-12-13T10:53:52.247Z,66.66
2018-12-13T10:56:20.678Z,66.63
2018-12-13T10:58:49.089Z,66.93
2018-12-13T11:01:22.811Z,66.93
2018-12-13T11:03:51.311Z,66.53
2018-12-13T11:06:19.664Z,66.53
2018-12-13T11:08:47.941Z,66.37
2018-12-13T11:11:16.254Z,66.70
2018-12-13T11:13:51.108Z,66.67
2018-12-13T11:16:19.407Z,66.93
2018-12-13T11:18:47.692Z,66.92
2018-12-13T11:21:17.359Z,66.35
2018-12-13T11:23:45.951Z,66.08
2018-12-13T11:26:14.252Z,66.59
2018-12-13T11:29:57.003Z,67.19
2018-12-13T11:32:25.677Z,67.48
2018-12-13T11:34:54.004Z,67.13
2018-12-13T11:37:22.424Z,66.62
2018-12-13T11:39:50.715Z,66.36
2018-12-13T11:42:18.983Z,66.97
2018-12-13T11:44:47.234Z,67.51
2018-12-13T11:47:15.659Z,67.19
2018-12-13T11:49:44.061Z,67.46
2018-12-13T11:55:13.740Z,67.88
2018-12-13T11:57:42.040Z,67.84
2018-12-13T12:00:10.521Z,68.33
2018-12-13T12:02:38.784Z,68.26
2018-12-13T12:05:07.145Z,68.73
2018-12-13T12:07:35.376Z,69.42
2018-12-13T12:10:03.903Z,69.04
2018-12-13T12:12:32.196Z,68.89
2018-12-13T12:15:00.447Z,68.90
2018-12-13T12:17:28.782Z,69.33
2018-12-13T12:19:57.039Z,69.48
2018-12-13T12:22:25.311Z,69.16
2018-12-13T12:24:53.691Z,69.07
2018-12-13T12:27:21.934Z,69.16
2018-12-13T12:29:50.214Z,69.70
2018-12-13T12:32:18.471Z,69.33
2018-12-13T12:34:46.738Z,69.76
2018-12-13T12:37:15.009Z,69.28
2018-12-13T12:39:43.240Z,69.75
2018-12-13T12:42:11.502Z,69.75
2018-12-13T12:44:41.905Z,70.67
2018-12-13T12:47:10.493Z,70.04
2018-12-13T12:49:38.821Z,70.15
2018-12-13T12:52:07.088Z,70.34
2018-12-13T12:54:35.381Z,70.43
2018-12-13T12:57:03.715Z,70.35
2018-12-13T12:59:31.963Z,70.78
2018-12-13T13:02:00.278Z,70.70
2018-12-13T13:04:28.515Z,70.46
2018-12-13T13:06:56.805Z,69.95
2018-12-13T13:09:25.399Z,71.09
2018-12-13T13:11:53.686Z,70.95
2018-12-13T13:14:22.032Z,71.75
2018-12-13T13:16:50.275Z,71.74
2018-12-13T13:19:18.568Z,71.74
2018-12-13T13:21:46.798Z,71.53
2018-12-13T13:24:15.203Z,71.88
2018-12-13T13:26:43.583Z,72.39
2018-12-13T13:29:11.838Z,72.48
2018-12-13T13:31:40.159Z,72.68
2018-12-13T13:34:08.533Z,72.52
2018-12-13T13:36:36.770Z,72.73
2018-12-13T13:39:07.657Z,72.54
2018-12-13T13:41:35.929Z,72.66
2018-12-13T13:44:07.266Z,72.75
2018-12-13T13:46:35.653Z,72.14
2018-12-13T13:49:04.054Z,72.27
2018-12-13T13:51:32.301Z,72.19
2018-12-13T13:54:00.526Z,72.73
2018-12-13T13:56:28.796Z,72.68
2018-12-13T13:58:57.745Z,72.58
2018-12-13T14:01:26.950Z,72.89
2018-12-13T14:03:57.289Z,73.14
2018-12-13T14:06:25.880Z,73.06
2018-12-13T14:08:55.029Z,73.32
2018-12-13T14:11:23.275Z,72.72
2018-12-13T14:13:51.540Z,72.71
2018-12-13T14:16:19.861Z,72.92
2018-12-13T14:18:48.094Z,73.15
2018-12-13T14:21:16.347Z,73.17
2018-12-13T14:23:44.672Z,73.17
2018-12-13T14:26:12.941Z,73.27
2018-12-13T14:28:41.320Z,73.35
2018-12-13T14:31:09.580Z,73.63
2018-12-13T14:33:37.973Z,73.40
2018-12-13T14:36:06.306Z,73.39
2018-12-13T14:38:34.537Z,73.79
2018-12-13T14:41:05.676Z,73.61
2018-12-13T14:43:41.069Z,74.47
2018-12-13T14:46:09.355Z,74.12
2018-12-13T14:48:37.587Z,74.06
2018-12-13T14:51:05.972Z,74.26
2018-12-13T14:53:34.258Z,74.39
2018-12-13T14:56:02.597Z,74.07
2018-12-13T14:58:30.918Z,74.25
2018-12-13T15:00:59.193Z,74.36
2018-12-13T15:03:27.824Z,74.22
2018-12-13T15:05:56.743Z,74.13
2018-12-13T15:08:25.810Z,74.08
2018-12-13T15:10:54.953Z,74.71
2018-12-13T15:13:24.194Z,74.24
2018-12-13T15:15:53.175Z,74.19
2018-12-13T15:18:22.608Z,74.82
2018-12-13T15:20:51.798Z,75.32
2018-12-13T15:23:21.060Z,75.37
2018-12-13T15:25:49.449Z,74.87
2018-12-13T15:28:17.683Z,74.73
2018-12-13T15:30:46.060Z,75.67
2018-12-13T15:33:15.004Z,75.13
2018-12-13T15:35:43.635Z,75.37
2018-12-13T15:38:12.142Z,75.16
2018-12-13T15:40:40.807Z,74.51
2018-12-13T15:43:09.091Z,74.48
2018-12-13T15:45:37.466Z,74.71
2018-12-13T15:48:05.773Z,74.37
2018-12-13T15:50:34.176Z,74.83
2018-12-13T15:53:02.459Z,74.39
2018-12-13T15:55:30.683Z,74.79
2018-12-13T15:57:59.232Z,74.38
2018-12-13T16:00:27.640Z,74.50
2018-12-13T16:02:55.919Z,73.62
2018-12-13T16:05:24.217Z,73.79
2018-12-13T16:07:52.464Z,73.67
2018-12-13T16:10:20.751Z,74.11
2018-12-13T16:12:49.052Z,74.29
2018-12-13T16:15:17.315Z,73.55
2018-12-13T16:17:46.076Z,74.08
2018-12-13T16:20:14.355Z,73.33
2018-12-13T16:22:42.647Z,73.11
2018-12-13T16:25:11.007Z,73.76
2018-12-13T16:27:39.575Z,73.48
2018-12-13T16:30:08.815Z,73.59
2018-12-13T16:32:37.023Z,74.13
2018-12-13T16:35:05.728Z,73.58
2018-12-13T16:37:33.990Z,73.47
2018-12-13T16:40:02.409Z,73.85
2018-12-13T16:42:30.761Z,73.97
2018-12-13T16:44:58.952Z,73.64
2018-12-13T16:47:27.192Z,73.95
2018-12-13T16:49:55.417Z,73.77
2018-12-13T16:52:23.657Z,73.45
2018-12-13T16:54:52.852Z,73.57
2018-12-13T16:57:21.556Z,73.41
2018-12-13T16:59:50.041Z,73.91
2018-12-13T17:05:11.254Z,74.08
2018-12-13T17:07:39.477Z,73.31
2018-12-13T17:10:09.117Z,73.80
2018-12-13T17:12:37.387Z,73.20
2018-12-13T17:15:06.770Z,72.95
2018-12-13T17:17:35.098Z,72.71
2018-12-13T17:20:03.357Z,72.98
2018-12-13T17:22:31.620Z,72.80
2018-12-13T17:24:59.920Z,73.18
2018-12-13T17:27:28.304Z,72.96
2018-12-13T17:29:56.638Z,73.11
2018-12-13T17:32:25.251Z,73.54
2018-12-13T17:34:53.599Z,73.09
2018-12-13T17:37:21.867Z,73.19
2018-12-13T17:39:50.358Z,72.80
2018-12-13T17:42:18.653Z,73.08
2018-12-13T17:44:47.062Z,73.04
2018-12-13T17:47:15.431Z,73.45
2018-12-13T17:49:43.912Z,73.27
2018-12-13T17:52:12.185Z,73.01
2018-12-13T17:54:40.538Z,72.67
2018-12-13T17:57:08.915Z,72.60
2018-12-13T17:59:37.233Z,72.15
2018-12-13T18:02:06.510Z,72.15
2018-12-13T18:04:35.248Z,71.98
2018-12-13T18:09:57.969Z,71.95
2018-12-13T18:12:26.886Z,71.59
2018-12-13T18:14:55.157Z,72.12
2018-12-13T18:17:24.520Z,71.98
2018-12-13T18:19:53.525Z,71.33
2018-12-13T18:22:22.072Z,71.63
2018-12-13T18:24:50.303Z,71.65
2018-12-13T18:27:18.664Z,71.93
2018-12-13T18:29:46.954Z,71.52
2018-12-13T18:32:15.223Z,72.07
2018-12-13T18:34:43.529Z,71.22
2018-12-13T18:37:11.839Z,71.39
2018-12-13T18:39:40.073Z,72.11
2018-12-13T18:42:08.364Z,71.34
2018-12-13T18:44:36.661Z,71.86
2018-12-13T18:47:05.690Z,72.13
2018-12-13T18:49:33.969Z,72.44
2018-12-13T18:52:02.260Z,71.77
2018-12-13T18:54:30.721Z,72.10
2018-12-13T18:56:59.038Z,72.19
2018-12-13T18:59:27.331Z,72.86
2018-12-13T19:01:55.714Z,73.23
2018-12-13T19:04:24.023Z,72.82
2018-12-13T19:06:52.402Z,72.97
2018-12-13T19:09:20.647Z,73.11
2018-12-13T19:11:48.922Z,73.42
2018-12-13T19:14:17.203Z,73.24
2018-12-13T19:16:45.572Z,72.55
2018-12-13T19:22:06.669Z,72.57
2018-12-13T19:24:35.126Z,73.60
2018-12-13T19:27:03.405Z,72.72
2018-12-13T19:29:31.748Z,72.62
2018-12-13T19:32:00.022Z,72.98
2018-12-13T19:37:21.749Z,72.29
2018-12-13T19:39:50.195Z,72.25
2018-12-13T19:42:18.535Z,72.48
2018-12-13T19:44:46.797Z,71.92
2018-12-13T19:47:15.087Z,72.18
2018-12-13T19:49:43.472Z,72.56
2018-12-13T19:52:11.832Z,72.53
2018-12-13T19:54:40.136Z,71.90
2018-12-13T19:57:08.498Z,71.58
2018-12-13T19:59:37.056Z,71.72
2018-12-13T20:02:06.766Z,71.49
2018-12-13T20:04:35.315Z,71.21
2018-12-13T20:07:03.672Z,71.72
2018-12-13T20:09:32.038Z,71.49
2018-12-13T20:12:00.552Z,72.12
2018-12-13T20:14:28.928Z,71.78
2018-12-13T20:17:07.923Z,71.88
2018-12-13T20:19:36.300Z,71.74
2018-12-13T20:22:04.724Z,71.20
2018-12-13T20:24:33.092Z,71.30
2018-12-13T20:27:01.464Z,71.13
2018-12-13T20:29:30.005Z,70.50
2018-12-13T20:34:52.121Z,70.23
2018-12-13T20:37:20.451Z,70.48
2018-12-13T20:39:49.217Z,70.66
2018-12-13T20:42:17.778Z,69.62
2018-12-13T20:44:46.103Z,69.81
2018-12-13T20:47:14.355Z,69.68
2018-12-13T20:49:43.731Z,69.48
2018-12-13T20:52:12.722Z,69.23
2018-12-13T20:54:41.033Z,69.70
2018-12-13T20:57:09.337Z,69.22
2018-12-13T20:59:37.655Z,69.12
2018-12-13T21:02:06.219Z,68.64
2018-12-13T21:04:34.715Z,68.48
2018-12-13T21:07:08.327Z,69.21
2018-12-13T21:09:36.612Z,69.03
2018-12-13T21:12:04.914Z,68.97
2018-12-13T21:14:33.244Z,69.31
2018-12-13T21:17:01.534Z,68.68
2018-12-13T21:19:29.874Z,69.03
2018-12-13T21:21:58.203Z,69.69
2018-12-13T21:24:26.643Z,69.53
2018-12-13T21:26:55.007Z,69.53
2018-12-13T21:29:23.872Z,69.97
2018-12-13T21:31:52.315Z,69.95
2018-12-13T21:34:20.719Z,70.39
2018-12-13T21:36:49.172Z,70.13
2018-12-13T21:39:17.529Z,70.42
2018-12-13T21:41:45.900Z,70.80
2018-12-13T21:44:14.148Z,70.64
2018-12-13T21:46:42.531Z,70.57
2018-12-13T21:49:10.788Z,70.98
2018-12-13T21:51:39.971Z,70.93
2018-12-13T21:54:08.330Z,71.23
2018-12-13T21:56:37.565Z,71.65
2018-12-13T21:59:07.414Z,71.90
2018-12-13T22:01:35.792Z,72.27
2018-12-13T22:04:05.023Z,72.54
2018-12-13T22:06:34.196Z,72.01
2018-12-13T22:09:02.701Z,72.21
2018-12-13T22:11:32.185Z,71.61
2018-12-13T22:14:00.642Z,72.41
2018-12-13T22:16:28.964Z,72.40
2018-12-13T22:19:04.127Z,72.61
2018-12-13T22:21:32.414Z,72.52
2018-12-13T22:24:01.610Z,73.36
2018-12-13T22:26:30.575Z,73.41
2018-12-13T22:28:59.387Z,73.46
2018-12-13T22:31:27.826Z,73.12
2018-12-13T22:33:56.200Z,73.94
2018-12-13T22:36:25.360Z,73.45
2018-12-13T22:38:53.626Z,73.72
2018-12-13T22:41:26.356Z,73.82
2018-12-13T22:43:52.340Z,73.76
2018-12-13T22:49:13.168Z,73.90
2018-12-13T22:54:34.533Z,73.96
2018-12-13T22:57:02.810Z,74.03
2018-12-13T22:59:31.170Z,73.50
2018-12-13T23:01:59.573Z,73.28
2018-12-13T23:04:27.976Z,72.60
2018-12-13T23:06:56.453Z,73.12
2018-12-13T23:09:24.655Z,73.70
2018-12-13T23:11:52.907Z,74.24
2018-12-13T23:14:21.259Z,74.51
2018-12-13T23:16:50.199Z,74.04
2018-12-13T23:19:18.487Z,73.94
2018-12-13T23:21:47.522Z,74.45
2018-12-13T23:24:16.057Z,73.93
2018-12-13T23:26:44.368Z,74.00
2018-12-13T23:29:12.772Z,74.23
2018-12-13T23:31:41.119Z,73.49
2018-12-13T23:34:09.545Z,73.11
2018-12-13T23:36:37.835Z,73.61
2018-12-13T23:39:06.844Z,74.76
2018-12-13T23:41:39.239Z,74.99
2018-12-13T23:44:05.637Z,73.98
2018-12-13T23:46:33.994Z,74.66
2018-12-13T23:49:02.258Z,74.80
2018-12-13T23:51:30.532Z,74.56
2018-12-13T23:53:58.865Z,74.80
2018-12-13T23:56:27.171Z,74.94
2018-12-13T23:58:55.748Z,74.62
